createdAt,value
2022-11-26T00:00:53.778Z,2.76
2022-11-26T00:03:20.942Z,2.77
2022-11-26T00:05:50.930Z,2.77
2022-11-26T00:08:20.352Z,2.79
2022-11-26T00:10:49.483Z,2.81
2022-11-26T00:13:18.519Z,2.83
2022-11-26T00:15:45.250Z,2.73
2022-11-26T00:18:13.144Z,2.75
2022-11-26T00:20:40.194Z,2.81
2022-11-26T00:23:07.415Z,2.77
2022-11-26T00:25:40.228Z,2.83
2022-11-26T00:28:24.448Z,2.72
2022-11-26T00:30:51.190Z,2.67
2022-11-26T00:33:17.923Z,2.74
2022-11-26T00:35:46.970Z,2.76
2022-11-26T00:38:17.791Z,2.68
2022-11-26T00:40:44.522Z,2.71
2022-11-26T00:43:16.103Z,2.66
2022-11-26T00:45:42.953Z,2.65
2022-11-26T00:48:09.706Z,2.62
2022-11-26T00:50:42.655Z,2.63
2022-11-26T00:53:12.877Z,2.69
2022-11-26T00:55:42.340Z,2.75
2022-11-26T00:58:34.121Z,2.71
2022-11-26T01:01:00.833Z,2.71
2022-11-26T01:03:27.600Z,2.69
2022-11-26T01:05:56.733Z,2.78
2022-11-26T01:08:36.183Z,2.81
2022-11-26T01:11:04.533Z,2.86
2022-11-26T01:13:31.774Z,2.71
2022-11-26T01:16:00.463Z,2.73
2022-11-26T01:18:27.392Z,2.75
2022-11-26T01:20:54.106Z,2.84
2022-11-26T01:23:20.926Z,2.79
2022-11-26T01:25:47.821Z,2.79
2022-11-26T01:28:17.611Z,2.62
2022-11-26T01:30:45.006Z,2.67
2022-11-26T01:33:11.739Z,2.68
2022-11-26T01:35:38.603Z,2.64
2022-11-26T01:38:05.538Z,2.75
2022-11-26T01:40:47.041Z,2.61
2022-11-26T01:43:25.163Z,2.63
2022-11-26T01:45:51.892Z,2.50
2022-11-26T01:48:32.893Z,2.51
2022-11-26T01:51:12.584Z,2.44
2022-11-26T01:53:42.267Z,2.59
2022-11-26T01:56:22.672Z,2.61
2022-11-26T01:58:54.063Z,2.58
2022-11-26T02:01:21.220Z,2.64
2022-11-26T02:04:17.932Z,2.68
2022-11-26T02:06:47.190Z,2.61
2022-11-26T02:09:14.397Z,2.67
2022-11-26T02:11:41.253Z,2.68
2022-11-26T02:14:12.790Z,2.64
2022-11-26T02:16:47.608Z,2.63
2022-11-26T02:19:32.614Z,2.47
2022-11-26T02:22:43.942Z,2.51
2022-11-26T02:25:13.311Z,2.62
2022-11-26T02:27:57.933Z,2.59
2022-11-26T02:30:24.723Z,2.57
2022-11-26T02:33:36.147Z,2.61
2022-11-26T02:36:09.843Z,2.75
2022-11-26T02:38:38.328Z,2.53
2022-11-26T02:41:05.149Z,2.41
2022-11-26T02:43:33.123Z,2.44
2022-11-26T02:46:02.268Z,2.49
2022-11-26T02:48:32.533Z,2.37
2022-11-26T02:51:02.397Z,2.37
2022-11-26T02:53:31.658Z,2.48
2022-11-26T02:56:04.025Z,2.53
2022-11-26T02:58:31.572Z,2.59
2022-11-26T03:00:59.790Z,2.54
2022-11-26T03:03:33.289Z,2.41
2022-11-26T03:06:03.196Z,2.49
2022-11-26T03:08:31.324Z,2.51
2022-11-26T03:10:58.144Z,2.53
2022-11-26T03:13:24.943Z,2.57
2022-11-26T03:15:51.754Z,2.68
2022-11-26T03:18:18.492Z,2.66
2022-11-26T03:20:45.134Z,2.64
2022-11-26T03:23:11.839Z,2.63
2022-11-26T03:25:38.614Z,2.58
2022-11-26T03:28:05.625Z,2.63
2022-11-26T03:30:32.446Z,2.58
2022-11-26T03:32:59.043Z,2.57
2022-11-26T03:35:25.670Z,2.58
2022-11-26T03:37:52.324Z,2.66
2022-11-26T03:40:19.535Z,2.71
2022-11-26T03:42:46.174Z,2.70
2022-11-26T03:45:13.222Z,2.77
2022-11-26T03:47:40.087Z,2.79
2022-11-26T03:50:07.640Z,2.80
2022-11-26T03:52:34.654Z,2.76
2022-11-26T03:55:01.252Z,2.54
2022-11-26T03:57:27.891Z,2.43
2022-11-26T03:59:54.603Z,2.54
2022-11-26T04:02:21.365Z,2.58
2022-11-26T04:04:48.056Z,2.59
2022-11-26T04:07:14.854Z,2.69
2022-11-26T04:09:41.485Z,2.85
2022-11-26T04:12:08.203Z,3.01
2022-11-26T04:14:34.932Z,2.73
2022-11-26T04:17:01.720Z,2.70
2022-11-26T04:19:28.401Z,2.75
2022-11-26T04:21:55.124Z,2.75
2022-11-26T04:24:21.750Z,2.75
2022-11-26T04:26:48.494Z,2.75
2022-11-26T04:29:15.154Z,2.80
2022-11-26T04:31:41.947Z,2.84
2022-11-26T04:34:08.644Z,2.84
2022-11-26T04:36:35.293Z,2.86
2022-11-26T04:39:01.965Z,2.89
2022-11-26T04:41:28.662Z,2.94
2022-11-26T04:43:55.307Z,3.04
2022-11-26T04:46:22.157Z,3.02
2022-11-26T04:48:48.913Z,3.11
2022-11-26T04:51:15.625Z,3.06
2022-11-26T04:53:42.344Z,3.00
2022-11-26T04:56:09.097Z,3.00
2022-11-26T04:58:36.074Z,3.01
2022-11-26T05:01:02.892Z,2.96
2022-11-26T05:03:30.063Z,2.94
2022-11-26T05:05:56.794Z,2.94
2022-11-26T05:08:23.549Z,2.83
2022-11-26T05:10:58.442Z,2.81
2022-11-26T05:13:25.111Z,2.79
2022-11-26T05:15:51.801Z,2.84
2022-11-26T05:18:18.441Z,2.91
2022-11-26T05:20:44.995Z,3.07
2022-11-26T05:23:11.746Z,2.94
2022-11-26T05:25:38.446Z,2.83
2022-11-26T05:28:05.180Z,2.76
2022-11-26T05:30:32.117Z,2.74
2022-11-26T05:32:58.726Z,2.77
2022-11-26T05:35:25.392Z,2.76
2022-11-26T05:37:52.077Z,2.77
2022-11-26T05:40:18.802Z,2.81
2022-11-26T05:42:45.376Z,2.83
2022-11-26T05:45:12.044Z,2.78
2022-11-26T05:47:38.629Z,2.74
2022-11-26T05:50:05.772Z,2.81
2022-11-26T05:52:32.376Z,2.85
2022-11-26T05:54:58.923Z,2.78
2022-11-26T05:57:25.536Z,2.88
2022-11-26T05:59:52.107Z,2.93
2022-11-26T06:02:18.827Z,2.96
2022-11-26T06:04:45.487Z,2.99
2022-11-26T06:07:12.120Z,3.07
2022-11-26T06:09:38.828Z,3.02
2022-11-26T06:12:05.706Z,2.98
2022-11-26T06:14:32.434Z,2.96
2022-11-26T06:16:59.242Z,2.99
2022-11-26T06:19:25.900Z,2.97
2022-11-26T06:21:52.484Z,3.01
2022-11-26T06:24:19.148Z,2.93
2022-11-26T06:26:45.707Z,3.01
2022-11-26T06:29:13.245Z,2.97
2022-11-26T06:31:39.863Z,3.19
2022-11-26T06:34:06.495Z,3.12
2022-11-26T06:36:33.104Z,3.11
2022-11-26T06:38:59.690Z,3.13
2022-11-26T06:41:26.246Z,3.09
2022-11-26T06:43:52.844Z,3.07
2022-11-26T06:46:19.503Z,3.12
2022-11-26T06:48:46.149Z,3.12
2022-11-26T06:51:14.933Z,3.11
2022-11-26T06:53:41.807Z,3.15
2022-11-26T06:56:17.737Z,3.16
2022-11-26T06:58:46.627Z,3.32
2022-11-26T07:01:17.483Z,3.22
2022-11-26T07:03:44.501Z,3.29
2022-11-26T07:06:17.875Z,3.35
2022-11-26T07:08:44.996Z,3.37
2022-11-26T07:11:11.762Z,3.44
2022-11-26T07:13:38.423Z,3.50
2022-11-26T07:16:05.877Z,3.54
2022-11-26T07:18:32.721Z,3.57
2022-11-26T07:21:05.653Z,3.67
2022-11-26T07:23:32.237Z,3.73
2022-11-26T07:26:00.056Z,3.78
2022-11-26T07:28:26.886Z,3.80
2022-11-26T07:30:53.586Z,3.86
2022-11-26T07:33:20.189Z,3.93
2022-11-26T07:35:46.784Z,3.98
2022-11-26T07:38:13.346Z,4.01
2022-11-26T07:40:39.858Z,4.08
2022-11-26T07:43:06.473Z,4.13
2022-11-26T07:45:36.267Z,4.23
2022-11-26T07:48:03.600Z,4.33
2022-11-26T07:50:30.954Z,4.40
2022-11-26T07:52:57.727Z,4.47
2022-11-26T07:55:24.353Z,4.50
2022-11-26T07:57:51.027Z,4.55
2022-11-26T08:00:18.341Z,4.61
2022-11-26T08:02:45.009Z,4.67
2022-11-26T08:05:11.622Z,4.83
2022-11-26T08:07:38.262Z,4.88
2022-11-26T08:10:05.465Z,5.41
2022-11-26T08:12:32.043Z,5.55
2022-11-26T08:14:58.640Z,5.56
2022-11-26T08:17:25.299Z,5.65
2022-11-26T08:19:51.964Z,5.69
2022-11-26T08:22:18.596Z,5.60
2022-11-26T08:24:45.162Z,5.56
2022-11-26T08:27:11.989Z,6.26
2022-11-26T08:29:38.590Z,6.29
2022-11-26T08:32:05.348Z,6.70
2022-11-26T08:34:33.220Z,7.00
2022-11-26T08:36:59.933Z,7.42
2022-11-26T08:39:26.616Z,8.05
2022-11-26T08:41:53.295Z,8.04
2022-11-26T08:44:20.518Z,8.53
2022-11-26T08:46:47.441Z,8.09
2022-11-26T08:49:18.020Z,8.38
2022-11-26T08:51:44.944Z,8.93
2022-11-26T08:54:12.628Z,9.15
2022-11-26T08:56:40.174Z,10.08
2022-11-26T08:59:06.759Z,10.29
2022-11-26T09:01:34.230Z,10.38
2022-11-26T09:04:03.186Z,9.58
2022-11-26T09:06:31.373Z,9.00
2022-11-26T09:09:13.874Z,8.94
2022-11-26T09:11:40.733Z,8.98
2022-11-26T09:14:07.569Z,8.59
2022-11-26T09:16:34.478Z,8.82
2022-11-26T09:19:01.690Z,9.56
2022-11-26T09:21:28.961Z,10.06
2022-11-26T09:23:55.730Z,10.65
2022-11-26T09:26:22.881Z,10.61
2022-11-26T09:28:49.630Z,11.04
2022-11-26T09:31:16.860Z,11.31
2022-11-26T09:33:44.367Z,11.31
2022-11-26T09:36:14.019Z,11.06
2022-11-26T09:38:40.974Z,11.07
2022-11-26T09:41:35.549Z,10.89
2022-11-26T09:44:17.031Z,9.98
2022-11-26T09:47:11.703Z,10.41
2022-11-26T09:50:13.781Z,10.01
2022-11-26T09:52:47.289Z,9.31
2022-11-26T09:55:17.751Z,8.89
2022-11-26T09:58:12.134Z,9.14
2022-11-26T10:00:49.919Z,9.26
2022-11-26T10:03:25.869Z,9.77
2022-11-26T10:05:52.496Z,10.17
2022-11-26T10:08:28.540Z,10.13
2022-11-26T10:11:17.508Z,9.94
2022-11-26T10:13:59.544Z,9.76
2022-11-26T10:16:42.591Z,9.96
2022-11-26T10:19:22.691Z,10.17
2022-11-26T10:22:00.390Z,9.58
2022-11-26T10:24:31.062Z,9.16
2022-11-26T10:27:00.924Z,9.00
2022-11-26T10:29:35.530Z,9.76
2022-11-26T10:32:11.749Z,9.42
2022-11-26T10:34:50.143Z,9.68
2022-11-26T10:37:17.201Z,9.47
2022-11-26T10:39:43.971Z,9.71
2022-11-26T10:42:21.815Z,9.82
2022-11-26T10:44:50.447Z,10.27
2022-11-26T10:47:24.411Z,9.88
2022-11-26T10:49:53.472Z,10.35
2022-11-26T10:52:27.187Z,9.41
2022-11-26T10:55:29.560Z,9.37
2022-11-26T10:58:08.231Z,10.00
2022-11-26T11:00:37.530Z,10.22
2022-11-26T11:03:44.611Z,10.45
2022-11-26T11:06:33.458Z,11.24
2022-11-26T11:09:00.149Z,10.80
2022-11-26T11:11:28.893Z,10.15
2022-11-26T11:13:55.890Z,10.02
2022-11-26T11:16:29.154Z,10.30
2022-11-26T11:18:57.977Z,9.66
2022-11-26T11:21:37.841Z,9.37
2022-11-26T11:24:11.075Z,9.21
2022-11-26T11:26:46.132Z,8.80
2022-11-26T11:29:34.884Z,9.07
2022-11-26T11:32:04.521Z,8.96
2022-11-26T11:34:39.234Z,8.74
2022-11-26T11:37:14.761Z,8.60
2022-11-26T11:39:42.635Z,8.34
2022-11-26T11:42:32.359Z,8.50
2022-11-26T11:45:00.428Z,8.61
2022-11-26T11:47:48.844Z,8.66
2022-11-26T11:50:29.456Z,8.84
2022-11-26T11:53:14.589Z,8.79
2022-11-26T11:56:11.790Z,8.66
2022-11-26T11:58:57.079Z,8.75
2022-11-26T12:01:43.532Z,8.78
2022-11-26T12:04:32.117Z,8.67
2022-11-26T12:07:05.129Z,8.62
2022-11-26T12:09:37.071Z,8.43
2022-11-26T12:12:18.360Z,8.40
2022-11-26T12:14:50.871Z,8.35
2022-11-26T12:18:00.863Z,8.27
2022-11-26T12:20:35.298Z,8.15
2022-11-26T12:23:27.818Z,8.14
2022-11-26T12:26:17.499Z,8.04
2022-11-26T12:29:03.990Z,8.20
2022-11-26T12:31:41.556Z,8.04
2022-11-26T12:34:16.053Z,7.99
2022-11-26T12:36:55.937Z,8.10
2022-11-26T12:39:59.211Z,7.88
2022-11-26T12:42:34.031Z,7.92
2022-11-26T12:45:17.911Z,8.02
2022-11-26T12:47:54.511Z,7.93
2022-11-26T12:50:27.891Z,8.12
2022-11-26T12:53:19.324Z,8.21
2022-11-26T12:55:56.402Z,8.26
2022-11-26T12:58:28.695Z,8.40
2022-11-26T13:00:57.054Z,8.50
2022-11-26T13:03:33.410Z,8.28
2022-11-26T13:06:35.851Z,8.43
2022-11-26T13:09:40.874Z,8.29
2022-11-26T13:12:46.762Z,7.98
2022-11-26T13:15:27.083Z,8.10
2022-11-26T13:17:54.831Z,8.38
2022-11-26T13:20:49.600Z,8.33
2022-11-26T13:23:41.102Z,8.61
2022-11-26T13:26:42.436Z,8.30
2022-11-26T13:29:28.767Z,8.10
2022-11-26T13:32:13.377Z,8.08
2022-11-26T13:35:00.915Z,7.70
2022-11-26T13:38:15.248Z,7.97
2022-11-26T13:41:13.528Z,8.05
2022-11-26T13:43:45.871Z,8.03
2022-11-26T13:46:22.996Z,7.92
2022-11-26T13:49:20.885Z,7.42
2022-11-26T13:51:50.951Z,7.39
2022-11-26T13:54:26.292Z,7.36
2022-11-26T13:57:15.305Z,7.20
2022-11-26T13:59:50.466Z,7.27
2022-11-26T14:02:36.606Z,7.36
2022-11-26T14:05:09.397Z,7.29
2022-11-26T14:07:36.486Z,7.48
2022-11-26T14:10:05.701Z,7.48
2022-11-26T14:13:03.689Z,7.37
2022-11-26T14:15:43.071Z,7.36
2022-11-26T14:18:11.890Z,7.26
2022-11-26T14:20:59.908Z,7.32
2022-11-26T14:23:42.970Z,7.27
2022-11-26T14:26:13.511Z,7.22
2022-11-26T14:28:40.257Z,7.19
2022-11-26T14:31:28.146Z,7.09
2022-11-26T14:33:57.069Z,7.10
2022-11-26T14:36:25.016Z,6.96
2022-11-26T14:39:08.203Z,6.94
2022-11-26T14:41:51.169Z,6.96
2022-11-26T14:44:19.150Z,7.04
2022-11-26T14:46:51.227Z,6.90
2022-11-26T14:49:21.041Z,6.83
2022-11-26T14:51:51.058Z,6.88
2022-11-26T14:54:33.122Z,6.90
2022-11-26T14:57:08.256Z,6.86
2022-11-26T14:59:35.168Z,6.87
2022-11-26T15:02:01.901Z,6.88
2022-11-26T15:04:31.040Z,6.83
2022-11-26T15:06:58.817Z,6.83
2022-11-26T15:09:27.618Z,6.65
2022-11-26T15:12:15.180Z,6.56
2022-11-26T15:14:54.724Z,6.60
2022-11-26T15:17:23.693Z,6.52
2022-11-26T15:19:52.658Z,6.39
2022-11-26T15:22:20.794Z,6.32
2022-11-26T15:24:54.401Z,6.23
2022-11-26T15:27:36.179Z,6.20
2022-11-26T15:30:04.686Z,6.22
2022-11-26T15:32:33.101Z,6.31
2022-11-26T15:35:02.533Z,6.29
2022-11-26T15:37:29.569Z,6.11
2022-11-26T15:40:25.423Z,6.09
2022-11-26T15:43:01.398Z,6.09
2022-11-26T15:45:38.974Z,6.05
2022-11-26T15:48:07.461Z,6.06
2022-11-26T15:50:36.766Z,5.96
2022-11-26T15:53:08.371Z,5.92
2022-11-26T15:55:36.661Z,6.01
2022-11-26T15:58:06.659Z,6.07
2022-11-26T16:00:42.660Z,6.06
2022-11-26T16:03:48.397Z,6.01
2022-11-26T16:06:31.602Z,6.06
2022-11-26T16:09:03.200Z,6.04
2022-11-26T16:11:31.919Z,6.05
2022-11-26T16:13:58.711Z,5.88
2022-11-26T16:16:26.387Z,5.96
2022-11-26T16:18:59.907Z,5.98
2022-11-26T16:21:32.420Z,5.94
2022-11-26T16:24:02.271Z,5.95
2022-11-26T16:26:29.802Z,5.90
2022-11-26T16:28:56.529Z,5.88
2022-11-26T16:31:23.640Z,5.90
2022-11-26T16:33:50.449Z,5.84
2022-11-26T16:36:20.461Z,5.80
2022-11-26T16:38:48.209Z,5.79
2022-11-26T16:41:16.481Z,5.87
2022-11-26T16:43:43.289Z,5.84
2022-11-26T16:46:20.989Z,5.85
2022-11-26T16:48:48.218Z,5.72
2022-11-26T16:51:15.750Z,5.72
2022-11-26T16:53:43.097Z,5.71
2022-11-26T16:56:18.784Z,5.61
2022-11-26T16:58:45.740Z,5.37
2022-11-26T17:01:12.561Z,5.32
2022-11-26T17:03:39.361Z,5.35
2022-11-26T17:06:13.501Z,5.27
2022-11-26T17:08:42.845Z,5.19
2022-11-26T17:11:13.968Z,5.12
2022-11-26T17:13:40.668Z,5.26
2022-11-26T17:16:14.291Z,5.14
2022-11-26T17:18:41.121Z,5.03
2022-11-26T17:21:07.870Z,5.02
2022-11-26T17:23:34.632Z,5.07
2022-11-26T17:26:01.950Z,5.07
2022-11-26T17:28:28.704Z,5.08
2022-11-26T17:30:56.078Z,5.02
2022-11-26T17:33:22.836Z,4.88
2022-11-26T17:35:49.590Z,4.95
2022-11-26T17:38:19.115Z,5.04
2022-11-26T17:40:46.561Z,5.03
2022-11-26T17:43:13.990Z,5.03
2022-11-26T17:45:41.275Z,5.01
2022-11-26T17:48:13.419Z,5.01
2022-11-26T17:50:41.021Z,5.01
2022-11-26T17:53:07.934Z,4.94
2022-11-26T17:55:34.666Z,4.92
2022-11-26T17:58:01.390Z,4.93
2022-11-26T18:00:29.493Z,4.96
2022-11-26T18:02:56.798Z,4.94
2022-11-26T18:05:24.263Z,4.94
2022-11-26T18:07:51.129Z,4.97
2022-11-26T18:10:19.372Z,4.93
2022-11-26T18:12:46.773Z,4.86
2022-11-26T18:15:18.721Z,4.90
2022-11-26T18:17:48.304Z,4.80
2022-11-26T18:20:18.298Z,4.78
2022-11-26T18:22:46.844Z,4.87
2022-11-26T18:25:14.271Z,4.92
2022-11-26T18:27:41.089Z,4.90
2022-11-26T18:30:09.308Z,4.84
2022-11-26T18:32:37.742Z,4.87
2022-11-26T18:35:05.851Z,4.90
2022-11-26T18:37:33.853Z,4.83
2022-11-26T18:40:00.729Z,4.81
2022-11-26T18:42:37.199Z,4.76
2022-11-26T18:45:06.769Z,4.62
2022-11-26T18:47:33.429Z,4.55
2022-11-26T18:50:00.188Z,4.61
2022-11-26T18:52:27.027Z,4.59
2022-11-26T18:54:53.845Z,4.50
2022-11-26T18:57:20.645Z,4.53
2022-11-26T18:59:47.511Z,4.59
2022-11-26T19:02:14.451Z,4.63
2022-11-26T19:04:41.410Z,4.65
2022-11-26T19:07:09.350Z,4.70
2022-11-26T19:09:37.736Z,4.72
2022-11-26T19:12:05.062Z,4.72
2022-11-26T19:14:31.789Z,4.65
2022-11-26T19:16:58.529Z,4.66
2022-11-26T19:19:25.738Z,4.64
2022-11-26T19:21:56.614Z,4.65
2022-11-26T19:24:26.073Z,4.65
2022-11-26T19:26:52.793Z,4.54
2022-11-26T19:29:19.836Z,4.56
2022-11-26T19:31:46.642Z,4.55
2022-11-26T19:34:14.882Z,4.52
2022-11-26T19:36:41.669Z,4.52
2022-11-26T19:39:08.992Z,4.42
2022-11-26T19:41:36.000Z,4.42
2022-11-26T19:44:04.159Z,4.25
2022-11-26T19:46:31.625Z,4.30
2022-11-26T19:48:58.538Z,4.23
2022-11-26T19:51:26.988Z,4.18
2022-11-26T19:53:55.498Z,4.05
2022-11-26T19:56:27.585Z,4.10
2022-11-26T19:58:54.842Z,4.10
2022-11-26T20:01:22.262Z,3.99
2022-11-26T20:03:49.989Z,3.89
2022-11-26T20:06:23.785Z,4.04
2022-11-26T20:08:50.551Z,3.98
2022-11-26T20:11:17.952Z,3.94
2022-11-26T20:13:46.422Z,4.08
2022-11-26T20:16:16.610Z,4.11
2022-11-26T20:18:43.806Z,4.11
2022-11-26T20:21:13.057Z,4.12
2022-11-26T20:23:40.108Z,4.12
2022-11-26T20:26:17.342Z,4.10
2022-11-26T20:28:44.198Z,3.91
2022-11-26T20:31:11.449Z,4.06
2022-11-26T20:33:38.262Z,4.10
2022-11-26T20:36:07.012Z,4.09
2022-11-26T20:38:33.915Z,4.01
2022-11-26T20:41:00.694Z,4.03
2022-11-26T20:43:27.401Z,4.00
2022-11-26T20:46:04.550Z,4.01
2022-11-26T20:48:32.301Z,3.90
2022-11-26T20:51:06.854Z,3.79
2022-11-26T20:53:35.542Z,3.69
2022-11-26T20:56:02.639Z,3.72
2022-11-26T20:58:29.691Z,3.49
2022-11-26T21:00:56.840Z,3.51
2022-11-26T21:03:25.287Z,3.50
2022-11-26T21:05:52.068Z,3.41
2022-11-26T21:08:19.743Z,3.34
2022-11-26T21:10:46.440Z,3.31
2022-11-26T21:13:14.929Z,3.13
2022-11-26T21:15:42.480Z,3.08
2022-11-26T21:18:09.919Z,3.21
2022-11-26T21:20:41.239Z,3.15
2022-11-26T21:23:08.638Z,3.16
2022-11-26T21:25:39.007Z,3.15
2022-11-26T21:28:06.730Z,3.00
2022-11-26T21:30:34.261Z,3.04
2022-11-26T21:33:07.501Z,2.99
2022-11-26T21:35:35.792Z,2.97
2022-11-26T21:38:02.429Z,2.76
2022-11-26T21:40:29.385Z,2.83
2022-11-26T21:42:56.133Z,2.82
2022-11-26T21:45:22.954Z,2.78
2022-11-26T21:47:51.127Z,2.47
2022-11-26T21:50:18.887Z,2.40
2022-11-26T21:52:45.805Z,2.49
2022-11-26T21:55:12.523Z,2.64
2022-11-26T21:57:39.109Z,2.70
2022-11-26T22:00:06.504Z,2.64
2022-11-26T22:02:33.156Z,2.48
2022-11-26T22:04:59.728Z,2.43
2022-11-26T22:07:26.571Z,2.56
2022-11-26T22:09:53.300Z,2.53
2022-11-26T22:12:19.890Z,2.58
2022-11-26T22:14:47.009Z,2.63
2022-11-26T22:17:13.605Z,2.58
2022-11-26T22:19:40.306Z,2.55
2022-11-26T22:22:07.089Z,2.62
2022-11-26T22:24:33.742Z,2.68
2022-11-26T22:27:00.304Z,2.53
2022-11-26T22:29:26.889Z,2.47
2022-11-26T22:31:53.490Z,2.49
2022-11-26T22:34:24.681Z,2.49
2022-11-26T22:36:51.362Z,2.52
2022-11-26T22:39:18.631Z,2.57
2022-11-26T22:41:46.879Z,2.35
2022-11-26T22:44:13.955Z,2.28
2022-11-26T22:46:40.572Z,2.38
2022-11-26T22:49:07.418Z,2.36
2022-11-26T22:51:35.094Z,2.27
2022-11-26T22:54:04.653Z,2.30
2022-11-26T22:56:31.989Z,2.12
2022-11-26T22:58:58.657Z,2.07
2022-11-26T23:01:27.809Z,2.03
2022-11-26T23:03:55.875Z,2.17
2022-11-26T23:06:24.414Z,2.21
2022-11-26T23:08:51.834Z,2.08
2022-11-26T23:11:25.100Z,2.08
2022-11-26T23:13:52.885Z,2.09
2022-11-26T23:16:20.878Z,1.96
2022-11-26T23:18:48.062Z,1.83
2022-11-26T23:21:16.931Z,1.60
2022-11-26T23:23:43.808Z,1.61
2022-11-26T23:26:12.476Z,1.75
2022-11-26T23:28:39.167Z,1.84
2022-11-26T23:31:09.881Z,1.83
2022-11-26T23:33:36.555Z,1.84
2022-11-26T23:36:03.609Z,1.96
2022-11-26T23:38:32.131Z,1.87
2022-11-26T23:41:02.402Z,1.84
2022-11-26T23:43:30.523Z,1.80
2022-11-26T23:46:13.427Z,1.65
2022-11-26T23:48:40.156Z,1.68
2022-11-26T23:51:08.926Z,1.63
2022-11-26T23:53:37.204Z,1.65
2022-11-26T23:56:05.109Z,1.62
2022-11-26T23:58:31.954Z,1.54
